Time;durP1;ratioP1;P1;durP2;ratioP2;P2;SDS_P1;SDS_P2;PMS_P1;PMS_P2;Temp;Humidity;BMP_temperature;BMP_pressure;BME280_temperature;BME280_humidity;BME280_pressure;Samples;Min_cycle;Max_cycle;Signal;HPM_P1;HPM_P2
2021/06/06 00:01:27;;;;;;;54.10;34.38;;;15.40;92.70;;;;;;4939999;29;20027;-76
2021/06/06 00:03:56;;;;;;;52.53;33.47;;;15.50;92.60;;;;;;4940372;29;20019;-76
2021/06/06 00:06:28;;;;;;;50.90;32.35;;;15.50;92.60;;;;;;4956765;29;20420;-75
2021/06/06 00:08:55;;;;;;;54.22;33.45;;;15.40;92.30;;;;;;4956662;29;20560;-76
2021/06/06 00:11:30;;;;;;;53.55;32.30;;;15.40;92.40;;;;;;4938218;29;20023;-76
2021/06/06 00:13:58;;;;;;;53.72;33.97;;;15.40;92.50;;;;;;4939489;29;20071;-76
2021/06/06 00:16:33;;;;;;;53.35;34.05;;;15.40;92.70;;;;;;4957167;29;20039;-76
2021/06/06 00:18:59;;;;;;;44.40;28.23;;;15.40;92.80;;;;;;4939684;29;20027;-75
2021/06/06 00:21:27;;;;;;;48.28;28.25;;;15.40;92.70;;;;;;4957320;29;20094;-76
2021/06/06 00:23:55;;;;;;;46.78;27.90;;;15.40;92.60;;;;;;4938857;29;20075;-76
2021/06/06 00:26:21;;;;;;;53.95;30.05;;;15.30;92.40;;;;;;4939039;29;20023;-75
2021/06/06 00:28:47;;;;;;;50.25;26.80;;;15.30;92.40;;;;;;4956256;29;20024;-76
2021/06/06 00:31:13;;;;;;;47.88;27.25;;;15.30;92.50;;;;;;4956478;29;20384;-75
2021/06/06 00:33:39;;;;;;;50.15;27.30;;;15.30;92.50;;;;;;4955935;28;20131;-75
2021/06/06 00:36:06;;;;;;;49.08;28.85;;;15.30;92.50;;;;;;4956462;29;20102;-76
2021/06/06 00:38:32;;;;;;;47.72;26.08;;;15.30;92.50;;;;;;4956005;28;20062;-76
2021/06/06 00:40:58;;;;;;;52.05;27.55;;;15.20;92.50;;;;;;4938629;29;20054;-76
2021/06/06 00:43:25;;;;;;;52.92;29.40;;;15.20;92.60;;;;;;4956291;29;20129;-76
2021/06/06 00:45:51;;;;;;;50.78;28.25;;;15.20;92.70;;;;;;4938943;29;20487;-75
2021/06/06 00:48:17;;;;;;;50.13;29.27;;;15.20;92.60;;;;;;4939014;29;20039;-76
2021/06/06 00:50:46;;;;;;;47.55;26.60;;;15.20;92.60;;;;;;4939205;29;20024;-75
2021/06/06 00:53:20;;;;;;;48.15;26.52;;;15.20;92.70;;;;;;4956186;29;20031;-76
2021/06/06 00:55:45;;;;;;;49.95;27.90;;;15.30;92.60;;;;;;4940029;29;20015;-75
2021/06/06 00:58:13;;;;;;;47.33;25.48;;;15.20;92.40;;;;;;4973641;29;20171;-75
2021/06/06 01:00:42;;;;;;;43.03;25.77;;;15.30;92.40;;;;;;4966685;29;20383;-76
2021/06/06 01:03:10;;;;;;;40.10;21.13;;;15.20;92.30;;;;;;4956945;28;20033;-76
2021/06/06 01:06:21;;;;;;;47.25;26.15;;;15.20;92.20;;;;;;4941661;29;20023;-74
2021/06/06 01:08:47;;;;;;;52.40;27.42;;;15.20;92.20;;;;;;4880349;29;20029;-75
2021/06/06 01:11:45;;;;;;;51.50;28.17;;;15.20;92.30;;;;;;4867377;29;20036;-76
2021/06/06 01:14:34;;;;;;;48.15;26.45;;;15.20;92.20;;;;;;4949308;28;20078;-75
2021/06/06 01:17:24;;;;;;;47.22;25.25;;;15.20;92.20;;;;;;4938753;29;20027;-75
2021/06/06 01:19:56;;;;;;;49.70;26.85;;;15.20;92.20;;;;;;4957029;29;20038;-76
2021/06/06 01:22:24;;;;;;;47.83;26.25;;;15.20;92.20;;;;;;4939100;28;20027;-76
2021/06/06 01:24:55;;;;;;;53.05;28.58;;;15.20;92.10;;;;;;4957042;29;20031;-75
2021/06/06 01:27:23;;;;;;;47.40;26.52;;;15.20;92.20;;;;;;4938227;29;20019;-75
2021/06/06 01:30:05;;;;;;;47.38;27.30;;;15.20;92.20;;;;;;4938033;29;20431;-75
2021/06/06 01:32:39;;;;;;;43.80;26.27;;;15.20;92.20;;;;;;4937994;29;20082;-75
2021/06/06 01:35:20;;;;;;;48.55;26.35;;;15.20;92.20;;;;;;4938013;29;20028;-75
2021/06/06 01:37:55;;;;;;;49.38;27.75;;;15.20;92.20;;;;;;4954222;29;20035;-75
2021/06/06 01:40:27;;;;;;;56.88;29.38;;;15.20;92.20;;;;;;4955549;29;20483;-75
2021/06/06 01:42:57;;;;;;;51.55;27.08;;;15.20;92.30;;;;;;4955306;29;20546;-77
2021/06/06 01:45:32;;;;;;;52.33;29.23;;;15.20;92.30;;;;;;4938036;29;20535;-76
2021/06/06 01:48:02;;;;;;;59.58;29.15;;;15.20;92.30;;;;;;4937726;29;20027;-76
2021/06/06 01:50:31;;;;;;;43.88;25.90;;;15.10;92.60;;;;;;4937863;29;20031;-75
2021/06/06 01:53:00;;;;;;;51.38;27.88;;;15.10;92.30;;;;;;4937584;29;20031;-76
2021/06/06 01:55:30;;;;;;;53.50;26.92;;;15.10;92.40;;;;;;4955175;29;20023;-76
2021/06/06 01:58:00;;;;;;;53.78;28.88;;;15.20;92.40;;;;;;4937236;29;20047;-76
2021/06/06 02:00:32;;;;;;;52.42;28.73;;;15.20;92.30;;;;;;4937849;29;20035;-76
2021/06/06 02:02:58;;;;;;;47.92;26.65;;;15.10;92.40;;;;;;4954330;29;20491;-75
2021/06/06 02:05:24;;;;;;;50.15;28.23;;;15.20;92.40;;;;;;4937581;29;20122;-76
2021/06/06 02:07:52;;;;;;;50.10;28.00;;;15.20;92.40;;;;;;4937705;29;20510;-76
2021/06/06 02:10:35;;;;;;;51.08;29.90;;;15.20;92.40;;;;;;4955043;29;20019;-76
2021/06/06 02:13:17;;;;;;;50.42;28.08;;;15.20;92.40;;;;;;4937651;29;20491;-76
2021/06/06 02:15:43;;;;;;;59.55;31.00;;;15.20;92.30;;;;;;4937665;29;20038;-76
2021/06/06 02:18:10;;;;;;;54.78;32.10;;;15.20;92.30;;;;;;4937303;29;20027;-76
2021/06/06 02:20:41;;;;;;;47.15;26.95;;;15.20;92.40;;;;;;4937566;29;20027;-76
2021/06/06 02:23:08;;;;;;;59.95;33.45;;;15.20;92.40;;;;;;4954797;29;20031;-75
2021/06/06 02:25:36;;;;;;;54.53;29.70;;;15.20;92.50;;;;;;4937368;29;20032;-75
2021/06/06 02:28:12;;;;;;;62.28;32.95;;;15.10;92.70;;;;;;4937034;29;20023;-76
2021/06/06 02:30:51;;;;;;;63.83;31.63;;;15.10;92.60;;;;;;4953666;29;20058;-76
2021/06/06 02:33:42;;;;;;;64.13;32.55;;;15.10;92.60;;;;;;4954603;29;20067;-76
2021/06/06 02:36:11;;;;;;;60.45;32.25;;;15.10;92.70;;;;;;4936481;29;20019;-76
2021/06/06 02:38:52;;;;;;;66.70;32.20;;;15.10;92.70;;;;;;4954699;29;20027;-77
2021/06/06 02:41:23;;;;;;;63.35;35.08;;;15.10;92.60;;;;;;4937057;29;20440;-75
2021/06/06 02:43:51;;;;;;;63.70;35.20;;;15.10;92.70;;;;;;4937028;29;20033;-76
2021/06/06 02:46:20;;;;;;;64.05;35.58;;;15.10;92.70;;;;;;4937054;29;20027;-76
2021/06/06 02:48:50;;;;;;;57.72;31.90;;;15.10;92.70;;;;;;4937424;29;20102;-76
2021/06/06 02:51:18;;;;;;;;;;;15.10;92.70;;;;;;4937853;29;20037;-75
2021/06/06 02:54:03;;;;;;;57.00;31.33;;;15.00;92.70;;;;;;4955115;29;19970;-76
2021/06/06 02:56:33;;;;;;;58.53;33.00;;;15.00;92.80;;;;;;4940406;29;20488;-76
2021/06/06 02:59:23;;;;;;;61.97;33.13;;;15.00;92.90;;;;;;4938707;29;20045;-75
2021/06/06 03:01:58;;;;;;;61.22;32.40;;;15.00;92.90;;;;;;4957095;29;20027;-75
2021/06/06 03:04:26;;;;;;;67.57;34.42;;;15.00;92.80;;;;;;4959978;29;20050;-76
2021/06/06 03:06:59;;;;;;;65.45;34.95;;;15.00;92.80;;;;;;4960601;29;20027;-75
2021/06/06 03:09:25;;;;;;;63.97;33.80;;;15.00;92.80;;;;;;4972250;28;20031;-75
2021/06/06 03:11:53;;;;;;;67.18;35.38;;;15.00;92.90;;;;;;4961438;29;20032;-74
2021/06/06 03:14:24;;;;;;;65.35;36.30;;;15.00;92.90;;;;;;4970819;28;20027;-76
2021/06/06 03:17:06;;;;;;;64.25;34.67;;;15.00;92.90;;;;;;4962702;29;20073;-76
2021/06/06 03:19:38;;;;;;;66.35;36.13;;;15.00;92.80;;;;;;4936865;29;20023;-75
2021/06/06 03:22:08;;;;;;;61.35;35.05;;;15.10;92.80;;;;;;4936688;29;20138;-76
2021/06/06 03:24:39;;;;;;;74.07;39.33;;;15.00;92.80;;;;;;4954281;29;20038;-76
2021/06/06 03:27:07;;;;;;;67.97;36.70;;;15.00;92.70;;;;;;4957484;29;20027;-77
2021/06/06 03:29:47;;;;;;;67.55;35.63;;;15.00;92.70;;;;;;4937632;29;20087;-76
2021/06/06 03:32:14;;;;;;;73.55;38.72;;;14.90;92.70;;;;;;4957697;29;20070;-76
2021/06/06 03:34:39;;;;;;;71.72;37.65;;;14.90;92.70;;;;;;4937344;29;20118;-77
2021/06/06 03:37:06;;;;;;;75.00;37.85;;;14.90;92.70;;;;;;4936520;29;20519;-77
2021/06/06 03:39:31;;;;;;;67.88;37.28;;;14.90;92.70;;;;;;4936721;29;20471;-76
2021/06/06 03:41:59;;;;;;;68.25;37.03;;;14.90;92.80;;;;;;4936502;29;20106;-75
2021/06/06 03:44:26;;;;;;;70.22;34.55;;;14.90;92.80;;;;;;4954114;29;20477;-76
2021/06/06 03:46:53;;;;;;;66.13;34.60;;;15.00;92.70;;;;;;4956203;28;20160;-75
2021/06/06 03:49:19;;;;;;;64.78;34.75;;;15.00;92.70;;;;;;4957145;29;20043;-75
2021/06/06 03:51:45;;;;;;;63.65;37.75;;;15.00;92.70;;;;;;4940035;29;20031;-75
2021/06/06 03:54:11;;;;;;;69.13;37.20;;;15.00;92.50;;;;;;4956776;29;20085;-75
2021/06/06 03:56:38;;;;;;;62.55;35.33;;;15.00;92.50;;;;;;4956967;28;20491;-76
2021/06/06 03:59:05;;;;;;;66.47;36.95;;;15.10;92.60;;;;;;4957306;29;20023;-76
2021/06/06 04:01:30;;;;;;;57.90;34.25;;;15.10;92.50;;;;;;4939477;29;20532;-76
2021/06/06 04:03:56;;;;;;;66.95;37.97;;;15.00;92.40;;;;;;4939755;29;20035;-75
2021/06/06 04:06:23;;;;;;;63.15;37.58;;;15.00;92.40;;;;;;4956824;29;20023;-75
2021/06/06 04:08:49;;;;;;;69.90;38.80;;;15.00;92.50;;;;;;4939672;29;20468;-75
2021/06/06 04:11:15;;;;;;;59.90;34.85;;;15.00;92.40;;;;;;4939429;29;20028;-74
2021/06/06 04:13:40;;;;;;;63.35;35.63;;;15.10;92.70;;;;;;4939581;29;20041;-75
2021/06/06 04:16:06;;;;;;;60.17;35.15;;;15.10;92.40;;;;;;4939489;29;20460;-75
2021/06/06 04:18:32;;;;;;;58.55;36.55;;;15.10;92.30;;;;;;4956800;29;20036;-75
2021/06/06 04:21:02;;;;;;;67.25;36.55;;;15.00;92.30;;;;;;4939983;29;20028;-75
2021/06/06 04:23:28;;;;;;;68.10;36.70;;;15.00;92.20;;;;;;4956845;29;20106;-76
2021/06/06 04:25:54;;;;;;;69.22;37.60;;;15.00;92.30;;;;;;4956463;29;20368;-76
2021/06/06 04:28:22;;;;;;;69.50;36.83;;;15.00;92.30;;;;;;4939372;29;20534;-76
2021/06/06 04:30:48;;;;;;;58.95;37.00;;;15.00;92.30;;;;;;4939310;29;20492;-76
2021/06/06 04:33:15;;;;;;;61.47;37.05;;;15.00;92.40;;;;;;4939154;29;20450;-75
2021/06/06 04:35:43;;;;;;;62.60;34.40;;;15.00;92.30;;;;;;4939034;29;20461;-76
2021/06/06 04:38:11;;;;;;;63.85;35.85;;;15.00;92.40;;;;;;4956474;29;20028;-75
2021/06/06 04:40:37;;;;;;;57.28;34.72;;;15.10;92.50;;;;;;4956213;29;20038;-75
2021/06/06 04:43:05;;;;;;;60.03;33.95;;;15.00;92.30;;;;;;4955976;29;20027;-76
2021/06/06 04:45:31;;;;;;;72.63;37.65;;;15.00;92.40;;;;;;4956419;29;20452;-76
2021/06/06 04:48:28;;;;;;;64.75;36.05;;;15.00;92.50;;;;;;4961360;29;20023;-75
2021/06/06 04:50:56;;;;;;;59.60;34.90;;;15.00;92.50;;;;;;4933189;29;20140;-76
2021/06/06 04:53:21;;;;;;;60.15;34.55;;;14.90;92.60;;;;;;4956252;29;20458;-77
2021/06/06 04:55:47;;;;;;;65.22;36.28;;;14.90;92.70;;;;;;4956837;29;20420;-75
2021/06/06 04:58:19;;;;;;;67.05;36.88;;;15.00;92.80;;;;;;4938266;29;20502;-75
2021/06/06 05:00:45;;;;;;;70.88;35.30;;;14.90;92.80;;;;;;4956124;29;20041;-75
2021/06/06 05:03:12;;;;;;;62.38;34.35;;;14.90;93.00;;;;;;4939093;29;20034;-75
2021/06/06 05:05:38;;;;;;;64.95;37.38;;;15.00;93.00;;;;;;4956809;29;20030;-75
2021/06/06 05:08:04;;;;;;;63.90;34.53;;;15.00;92.90;;;;;;4942485;29;20027;-77
2021/06/06 05:10:32;;;;;;;65.88;35.75;;;15.00;92.80;;;;;;4956196;28;20040;-76
2021/06/06 05:12:58;;;;;;;63.42;34.67;;;15.00;92.80;;;;;;4946491;29;20083;-76
2021/06/06 05:15:24;;;;;;;59.75;33.50;;;15.00;92.90;;;;;;4957865;29;20038;-74
2021/06/06 05:17:51;;;;;;;57.22;34.28;;;15.10;93.00;;;;;;4942438;29;20030;-76
2021/06/06 05:20:21;;;;;;;52.88;31.77;;;15.10;93.10;;;;;;4955173;29;20020;-75
2021/06/06 05:22:46;;;;;;;56.17;33.35;;;15.10;92.90;;;;;;4955491;29;20037;-75
2021/06/06 05:25:13;;;;;;;62.05;34.00;;;15.10;92.90;;;;;;4955400;29;20435;-76
2021/06/06 05:27:39;;;;;;;56.38;30.90;;;15.10;92.80;;;;;;4938354;29;20380;-76
2021/06/06 05:30:07;;;;;;;55.80;30.52;;;15.20;92.80;;;;;;4937974;29;20605;-75
2021/06/06 05:32:33;;;;;;;56.00;33.78;;;15.20;92.70;;;;;;4956495;29;20078;-76
2021/06/06 05:34:59;;;;;;;48.53;28.58;;;15.10;92.80;;;;;;4957341;29;20023;-75
2021/06/06 05:37:24;;;;;;;46.75;28.67;;;15.20;92.80;;;;;;4940007;29;20031;-75
2021/06/06 05:39:50;;;;;;;60.53;33.47;;;15.20;92.70;;;;;;4940474;29;20023;-74
2021/06/06 05:42:15;;;;;;;47.00;30.35;;;15.20;92.70;;;;;;4940794;29;20027;-75
2021/06/06 05:44:41;;;;;;;54.88;31.73;;;15.20;92.70;;;;;;4956611;29;20074;-75
2021/06/06 05:47:08;;;;;;;48.53;28.75;;;15.20;92.80;;;;;;4937818;29;20031;-75
2021/06/06 05:49:33;;;;;;;44.85;28.38;;;15.20;92.80;;;;;;4954855;29;20034;-76
2021/06/06 05:51:59;;;;;;;46.17;28.88;;;15.20;92.70;;;;;;4937369;29;20027;-75
2021/06/06 05:54:25;;;;;;;52.33;29.80;;;15.20;92.70;;;;;;4937337;29;20027;-75
2021/06/06 05:56:50;;;;;;;50.40;30.20;;;15.20;92.70;;;;;;4954759;29;20406;-75
2021/06/06 05:59:16;;;;;;;49.15;29.88;;;15.20;92.70;;;;;;4937604;29;20090;-75
2021/06/06 06:01:41;;;;;;;45.33;29.13;;;15.20;92.90;;;;;;4937592;29;20019;-75
2021/06/06 06:04:07;;;;;;;45.90;30.08;;;15.20;92.90;;;;;;4954257;29;20081;-75
2021/06/06 06:06:33;;;;;;;45.72;30.35;;;15.20;92.90;;;;;;4954435;29;20051;-75
2021/06/06 06:08:58;;;;;;;51.15;30.25;;;15.20;93.00;;;;;;4937198;29;20015;-75
2021/06/06 06:11:24;;;;;;;46.08;28.92;;;15.20;92.90;;;;;;4954351;29;20154;-75
2021/06/06 06:13:51;;;;;;;51.72;30.13;;;15.20;92.90;;;;;;4954633;29;20035;-74
2021/06/06 06:16:20;;;;;;;49.63;30.73;;;15.30;92.90;;;;;;4954676;29;20046;-76
2021/06/06 06:18:49;;;;;;;47.83;29.85;;;15.30;92.90;;;;;;4954733;29;20024;-76
2021/06/06 06:21:16;;;;;;;38.35;26.33;;;15.40;92.70;;;;;;4937312;29;20024;-75
2021/06/06 06:23:42;;;;;;;48.55;30.85;;;15.40;92.70;;;;;;4937485;29;20069;-75
2021/06/06 06:26:08;;;;;;;39.45;27.05;;;15.40;92.70;;;;;;4937353;29;20027;-75
2021/06/06 06:28:34;;;;;;;44.47;28.77;;;15.50;92.60;;;;;;4937561;29;20032;-75
2021/06/06 06:31:01;;;;;;;50.80;32.08;;;15.50;92.60;;;;;;4954579;29;20464;-76
2021/06/06 06:33:27;;;;;;;32.05;24.02;;;15.50;92.60;;;;;;4937346;29;20023;-76
2021/06/06 06:35:53;;;;;;;35.08;24.77;;;15.60;92.40;;;;;;4954766;29;20035;-75
2021/06/06 06:38:19;;;;;;;39.20;25.13;;;15.60;92.40;;;;;;4955843;29;20358;-75
2021/06/06 06:40:45;;;;;;;38.63;25.55;;;15.60;92.30;;;;;;4956530;29;20071;-76
2021/06/06 06:43:11;;;;;;;31.23;21.20;;;15.70;92.20;;;;;;4937752;29;20122;-73
2021/06/06 06:45:40;;;;;;;38.55;25.17;;;15.70;91.70;;;;;;4955326;29;20028;-75
2021/06/06 06:48:15;;;;;;;37.85;24.10;;;15.70;91.80;;;;;;4954925;29;20035;-75
2021/06/06 06:50:42;;;;;;;37.92;25.00;;;15.80;92.00;;;;;;4937480;29;20026;-75
2021/06/06 06:53:08;;;;;;;18.20;12.70;;;15.80;92.00;;;;;;4937241;29;20023;-75
2021/06/06 06:55:34;;;;;;;36.38;24.85;;;15.90;91.40;;;;;;4937235;29;20537;-75
2021/06/06 06:58:03;;;;;;;29.00;21.88;;;15.90;91.50;;;;;;4954060;28;20047;-75
2021/06/06 07:00:37;;;;;;;29.20;23.42;;;16.00;91.60;;;;;;4948716;29;20043;-76
2021/06/06 07:03:03;;;;;;;34.13;24.63;;;16.10;91.30;;;;;;4937424;29;20089;-75
2021/06/06 07:05:29;;;;;;;34.63;23.63;;;16.20;91.30;;;;;;4937399;29;20031;-76
2021/06/06 07:07:55;;;;;;;35.10;24.00;;;16.20;91.30;;;;;;4937647;29;20052;-76
2021/06/06 07:10:24;;;;;;;29.38;22.13;;;16.30;91.10;;;;;;4948436;29;20609;-75
2021/06/06 07:12:50;;;;;;;29.35;21.88;;;16.40;90.80;;;;;;4946841;28;20027;-75
2021/06/06 07:15:17;;;;;;;33.33;22.77;;;16.30;90.50;;;;;;4967664;29;20028;-74
2021/06/06 07:17:43;;;;;;;32.47;23.90;;;16.40;90.60;;;;;;4966033;29;20019;-76
2021/06/06 07:20:12;;;;;;;36.95;24.50;;;16.50;90.60;;;;;;4937162;28;20034;-75
2021/06/06 07:22:38;;;;;;;29.65;22.80;;;16.40;90.30;;;;;;4940706;29;20171;-75
2021/06/06 07:25:06;;;;;;;33.08;23.65;;;16.40;90.50;;;;;;4940784;29;20670;-76
2021/06/06 07:27:35;;;;;;;35.60;25.42;;;16.40;90.40;;;;;;4940486;29;20023;-75
2021/06/06 07:30:02;;;;;;;30.88;21.65;;;16.50;90.50;;;;;;4940509;29;20157;-76
2021/06/06 07:32:28;;;;;;;31.63;23.30;;;16.60;90.00;;;;;;4957350;29;20031;-75
2021/06/06 07:34:53;;;;;;;35.47;23.05;;;16.60;89.50;;;;;;4958150;29;20042;-76
2021/06/06 07:37:19;;;;;;;30.83;22.65;;;16.60;89.20;;;;;;4940005;29;20024;-76
2021/06/06 07:39:45;;;;;;;28.30;21.17;;;16.70;88.80;;;;;;4957069;29;20122;-77
2021/06/06 07:42:13;;;;;;;30.60;22.98;;;16.60;88.70;;;;;;4941422;29;20031;-76
2021/06/06 07:44:40;;;;;;;30.17;20.88;;;16.70;89.30;;;;;;4940430;29;20114;-76
2021/06/06 07:47:07;;;;;;;24.15;18.95;;;16.80;89.30;;;;;;4958287;29;20081;-76
2021/06/06 07:49:34;;;;;;;26.60;18.77;;;16.80;88.40;;;;;;4940176;29;20468;-76
2021/06/06 07:52:00;;;;;;;29.10;20.73;;;16.80;88.30;;;;;;4940230;29;20267;-76
2021/06/06 07:54:25;;;;;;;26.08;19.08;;;16.80;88.00;;;;;;4939777;29;20035;-76
2021/06/06 07:56:51;;;;;;;21.92;17.13;;;16.80;87.60;;;;;;4957092;29;20129;-75
2021/06/06 07:59:16;;;;;;;10.57;7.32;;;16.80;86.70;;;;;;4957003;29;20349;-76
2021/06/06 08:01:42;;;;;;;15.65;11.63;;;16.90;85.60;;;;;;4940015;29;20019;-76
2021/06/06 08:04:08;;;;;;;22.13;16.13;;;16.90;86.70;;;;;;4939831;29;20034;-74
2021/06/06 08:06:34;;;;;;;17.45;12.27;;;17.10;86.10;;;;;;4939521;29;20054;-76
2021/06/06 08:09:00;;;;;;;27.02;17.88;;;17.20;85.40;;;;;;4939607;29;20027;-75
2021/06/06 08:11:25;;;;;;;31.80;21.90;;;17.30;86.10;;;;;;4956665;29;20460;-76
2021/06/06 08:13:52;;;;;;;22.65;17.55;;;17.30;86.20;;;;;;4939736;29;20034;-77
2021/06/06 08:16:18;;;;;;;23.83;16.55;;;17.30;85.10;;;;;;4939253;29;20031;-76
2021/06/06 08:18:46;;;;;;;20.38;15.80;;;17.40;84.90;;;;;;4939510;29;20034;-75
2021/06/06 08:21:16;;;;;;;21.90;16.60;;;17.30;84.90;;;;;;4957193;29;20026;-75
2021/06/06 08:23:42;;;;;;;;;;;17.30;85.40;;;;;;4958886;29;20031;-76
2021/06/06 08:26:10;;;;;;;21.88;15.93;;;17.40;85.00;;;;;;4960509;29;20009;-76
2021/06/06 08:28:37;;;;;;;21.42;15.75;;;17.40;85.10;;;;;;4940525;29;20031;-76
2021/06/06 08:31:09;;;;;;;17.55;13.65;;;17.40;84.20;;;;;;4960338;29;20031;-76
2021/06/06 08:33:36;;;;;;;21.55;15.45;;;17.50;84.50;;;;;;4956511;28;20883;-76
2021/06/06 08:36:13;;;;;;;15.60;12.20;;;17.60;84.60;;;;;;4939299;29;20027;-76
2021/06/06 08:38:39;;;;;;;19.45;14.18;;;17.60;84.00;;;;;;4939586;29;20055;-76
2021/06/06 08:41:08;;;;;;;22.02;14.48;;;17.70;83.00;;;;;;4939247;29;20039;-75
2021/06/06 08:43:45;;;;;;;18.02;12.70;;;17.70;83.80;;;;;;4956284;29;20031;-74
2021/06/06 08:46:12;;;;;;;18.42;13.70;;;17.70;82.70;;;;;;4956573;29;20023;-74
2021/06/06 08:48:38;;;;;;;20.00;13.95;;;17.60;82.80;;;;;;4956463;29;20027;-74
2021/06/06 08:51:07;;;;;;;16.27;11.73;;;17.60;82.30;;;;;;4956341;29;20023;-75
2021/06/06 08:53:40;;;;;;;15.07;11.90;;;17.60;82.70;;;;;;4956076;29;20031;-76
2021/06/06 08:56:28;;;;;;;18.08;12.05;;;17.70;81.90;;;;;;4938803;29;20496;-76
2021/06/06 08:59:01;;;;;;;16.02;11.55;;;17.80;81.50;;;;;;4956439;29;20039;-75
2021/06/06 09:01:43;;;;;;;18.42;11.35;;;17.90;80.70;;;;;;4938911;29;20166;-74
2021/06/06 09:04:16;;;;;;;16.50;10.82;;;18.00;80.50;;;;;;4939277;29;20055;-74
2021/06/06 09:06:55;;;;;;;13.93;11.10;;;18.00;80.10;;;;;;4956337;29;20191;-75
2021/06/06 09:09:26;;;;;;;14.47;9.97;;;18.10;79.40;;;;;;4957689;29;20035;-75
2021/06/06 09:11:52;;;;;;;15.32;10.57;;;18.20;79.60;;;;;;4972300;29;20038;-74
2021/06/06 09:14:18;;;;;;;16.75;10.35;;;18.30;78.90;;;;;;4941243;29;20042;-76
2021/06/06 09:16:52;;;;;;;16.48;11.00;;;18.40;79.00;;;;;;4956039;29;20027;-74
2021/06/06 09:19:18;;;;;;;13.45;9.60;;;18.50;78.00;;;;;;4943032;29;20027;-74
2021/06/06 09:21:59;;;;;;;14.57;10.02;;;18.70;78.10;;;;;;4959458;29;20107;-75
2021/06/06 09:24:35;;;;;;;15.13;9.85;;;18.90;77.50;;;;;;4938562;29;20031;-75
2021/06/06 09:27:15;;;;;;;14.63;9.35;;;19.30;75.90;;;;;;4955993;29;20145;-76
2021/06/06 09:29:42;;;;;;;13.95;9.32;;;19.40;74.70;;;;;;4938397;29;20452;-74
2021/06/06 09:32:13;;;;;;;15.48;9.95;;;19.50;74.70;;;;;;4955621;29;20027;-74
2021/06/06 09:34:53;;;;;;;11.88;9.30;;;19.60;74.40;;;;;;4938032;29;20534;-75
2021/06/06 09:37:27;;;;;;;;;;;19.90;74.10;;;;;;4940302;29;20499;-74
2021/06/06 09:40:09;;;;;;;11.32;7.63;;;20.20;72.80;;;;;;4938581;29;19906;-75
2021/06/06 09:42:42;;;;;;;10.82;7.53;;;20.30;72.10;;;;;;4937921;29;20130;-74
2021/06/06 09:45:11;;;;;;;12.98;5.65;;;20.30;71.20;;;;;;4939518;29;20086;-73
2021/06/06 09:47:37;;;;;;;8.38;5.82;;;20.40;71.20;;;;;;4944147;29;20403;-73
2021/06/06 09:50:10;;;;;;;9.95;7.40;;;20.50;71.90;;;;;;4939031;29;20027;-76
2021/06/06 09:52:44;;;;;;;12.00;4.03;;;20.80;70.60;;;;;;4941835;29;20043;-76
2021/06/06 09:55:14;;;;;;;9.95;6.93;;;21.00;70.90;;;;;;4941658;29;20034;-75
2021/06/06 09:57:43;;;;;;;9.07;6.28;;;21.30;69.70;;;;;;4938686;29;20134;-77
2021/06/06 10:00:28;;;;;;;8.98;3.60;;;21.40;67.70;;;;;;4941384;29;20028;-76
2021/06/06 10:03:06;;;;;;;10.20;4.60;;;21.30;69.30;;;;;;4938339;29;20126;-77
2021/06/06 10:05:33;;;;;;;7.40;3.63;;;21.30;70.40;;;;;;4938165;29;20030;-77
2021/06/06 10:08:06;;;;;;;7.75;3.85;;;21.30;70.50;;;;;;4938514;29;20023;-76
2021/06/06 10:10:46;;;;;;;8.27;5.28;;;21.40;70.70;;;;;;4937835;29;20106;-76
2021/06/06 10:13:17;;;;;;;6.32;2.90;;;21.50;70.00;;;;;;4938267;29;20030;-77
2021/06/06 10:15:47;;;;;;;8.93;5.93;;;21.60;70.50;;;;;;4938253;29;20027;-77
2021/06/06 10:18:19;;;;;;;11.43;5.88;;;21.70;68.40;;;;;;4937959;29;20118;-76
2021/06/06 10:20:50;;;;;;;5.82;3.45;;;21.70;69.70;;;;;;4955040;29;20166;-77
2021/06/06 10:23:42;;;;;;;7.53;4.72;;;21.70;70.00;;;;;;4940458;29;20023;-76
2021/06/06 10:26:24;;;;;;;5.85;3.05;;;21.90;66.20;;;;;;4949591;28;20114;-76
2021/06/06 10:28:54;;;;;;;6.93;4.05;;;21.90;69.00;;;;;;4938190;29;20029;-76
2021/06/06 10:31:22;;;;;;;8.15;5.40;;;21.90;68.60;;;;;;4937115;29;20038;-76
2021/06/06 10:34:06;;;;;;;10.93;6.82;;;22.00;69.10;;;;;;4954564;29;20027;-76
2021/06/06 10:36:35;;;;;;;7.35;5.13;;;22.00;66.40;;;;;;4937163;29;20031;-77
2021/06/06 10:39:03;;;;;;;5.95;3.63;;;21.90;66.60;;;;;;4937514;29;20042;-76
2021/06/06 10:41:41;;;;;;;7.93;5.53;;;21.80;68.70;;;;;;4955107;29;20027;-77
2021/06/06 10:44:25;;;;;;;9.18;5.35;;;21.70;66.90;;;;;;4954883;29;20050;-74
2021/06/06 10:47:01;;;;;;;9.02;6.38;;;21.60;67.30;;;;;;4930856;29;20380;-78
2021/06/06 10:49:35;;;;;;;10.63;7.38;;;21.50;68.20;;;;;;4937022;29;20036;-76
2021/06/06 10:52:04;;;;;;;11.07;6.32;;;21.40;66.40;;;;;;4954476;29;20027;-77
2021/06/06 10:54:43;;;;;;;9.17;3.90;;;21.20;67.60;;;;;;4937159;29;20028;-77
2021/06/06 10:57:26;;;;;;;5.72;3.53;;;21.20;69.80;;;;;;4939843;29;20047;-77
2021/06/06 10:59:54;;;;;;;9.93;5.90;;;21.20;72.10;;;;;;4941158;29;20417;-77
2021/06/06 11:02:32;;;;;;;9.50;6.07;;;21.10;68.80;;;;;;4940970;29;20082;-78
2021/06/06 11:05:01;;;;;;;12.18;6.78;;;21.10;68.90;;;;;;4941339;29;20070;-77
2021/06/06 11:07:30;;;;;;;11.25;6.68;;;21.10;67.20;;;;;;4942779;29;20148;-78
2021/06/06 11:10:18;;;;;;;9.38;5.88;;;21.00;68.50;;;;;;4943379;29;20027;-77
2021/06/06 11:12:46;;;;;;;10.32;4.13;;;21.00;68.00;;;;;;4960406;29;20031;-77
2021/06/06 11:15:55;;;;;;;11.25;6.57;;;21.10;70.20;;;;;;4944372;29;20552;-77
2021/06/06 11:18:23;;;;;;;6.70;4.18;;;21.40;69.20;;;;;;4960551;29;20023;-76
2021/06/06 11:20:56;;;;;;;7.75;4.95;;;21.60;69.90;;;;;;4941658;29;20134;-77
2021/06/06 11:23:45;;;;;;;10.27;5.60;;;21.70;68.80;;;;;;4958589;29;20468;-76
2021/06/06 11:26:36;;;;;;;9.45;5.75;;;21.90;67.90;;;;;;4952047;29;20020;-76
2021/06/06 11:29:09;;;;;;;9.68;6.63;;;22.10;66.30;;;;;;4970955;29;20027;-77
2021/06/06 11:31:36;;;;;;;8.90;5.97;;;22.20;65.60;;;;;;4940480;29;20035;-76
2021/06/06 11:34:22;;;;;;;10.50;6.47;;;22.30;66.20;;;;;;4957682;29;20027;-76
2021/06/06 11:36:48;;;;;;;8.18;6.05;;;22.50;64.20;;;;;;4940396;29;20031;-76
2021/06/06 11:39:28;;;;;;;8.45;5.50;;;22.70;62.80;;;;;;4940245;29;20028;-76
2021/06/06 11:41:54;;;;;;;;;;;22.70;62.90;;;;;;4940623;29;20392;-76
2021/06/06 11:44:44;;;;;;;9.13;5.80;;;22.50;64.60;;;;;;4940269;29;19914;-76
2021/06/06 11:47:22;;;;;;;7.55;5.70;;;22.50;63.20;;;;;;4940378;29;20019;-77
2021/06/06 11:49:51;;;;;;;7.60;4.72;;;22.60;62.40;;;;;;4940194;29;20024;-77
2021/06/06 11:52:25;;;;;;;9.13;5.13;;;22.80;63.00;;;;;;4940124;29;20468;-77
2021/06/06 11:55:01;;;;;;;6.55;4.22;;;23.10;61.90;;;;;;4941032;29;20480;-76
2021/06/06 11:57:36;;;;;;;7.40;3.30;;;23.30;62.50;;;;;;4959757;29;20046;-78
2021/06/06 12:00:30;;;;;;;6.68;3.90;;;23.40;65.10;;;;;;4943378;29;20118;-78
2021/06/06 12:03:18;;;;;;;9.18;4.15;;;23.60;66.00;;;;;;4960979;28;20031;-77
2021/06/06 12:05:57;;;;;;;7.68;3.30;;;23.80;60.60;;;;;;4949791;29;20027;-77
2021/06/06 12:08:50;;;;;;;7.60;3.97;;;23.90;60.20;;;;;;4955702;28;20392;-78
2021/06/06 12:11:16;;;;;;;7.72;4.30;;;23.70;58.90;;;;;;4937868;29;20035;-76
2021/06/06 12:13:44;;;;;;;6.18;3.42;;;23.60;60.90;;;;;;4939920;29;20038;-76
2021/06/06 12:16:17;;;;;;;5.15;3.35;;;23.40;65.20;;;;;;4940121;29;20031;-77
2021/06/06 12:18:46;;;;;;;7.93;3.92;;;23.40;62.00;;;;;;4960730;29;20027;-79
2021/06/06 12:21:21;;;;;;;5.18;2.88;;;23.60;63.20;;;;;;4957400;29;20055;-78
2021/06/06 12:23:50;;;;;;;7.28;3.47;;;23.70;64.10;;;;;;4939878;29;20476;-79
2021/06/06 12:26:30;;;;;;;5.60;2.83;;;23.90;65.80;;;;;;4939777;29;20419;-81
2021/06/06 12:28:57;;;;;;;8.00;3.42;;;24.20;63.10;;;;;;4940272;29;20027;-78
2021/06/06 12:31:28;;;;;;;6.30;3.50;;;24.30;63.30;;;;;;4939651;29;20110;-78
2021/06/06 12:33:55;;;;;;;3.88;2.72;;;24.40;62.60;;;;;;4939782;29;20063;-78
2021/06/06 12:36:33;;;;;;;5.13;2.97;;;24.40;63.00;;;;;;4956959;29;20023;-78
2021/06/06 12:39:02;;;;;;;5.93;2.95;;;24.30;61.30;;;;;;4939495;29;20376;-77
2021/06/06 12:41:30;;;;;;;6.32;3.50;;;24.20;62.40;;;;;;4939213;29;20114;-78
2021/06/06 12:43:58;;;;;;;5.13;2.50;;;24.10;62.90;;;;;;4955423;29;20024;-77
2021/06/06 12:46:25;;;;;;;4.88;2.65;;;24.00;61.40;;;;;;4939476;29;20031;-77
2021/06/06 12:48:59;;;;;;;5.13;2.58;;;23.90;63.20;;;;;;4939180;29;20097;-78
2021/06/06 12:51:37;;;;;;;5.57;2.60;;;23.90;63.70;;;;;;4939416;29;20029;-77